createdAt,value
2023-04-16T00:01:58.619Z,101839.28
2023-04-16T00:04:25.540Z,101836.63
2023-04-16T00:06:52.261Z,101852.34
2023-04-16T00:09:19.559Z,101847.09
2023-04-16T00:11:46.225Z,101846.19
2023-04-16T00:14:12.890Z,101854.03
2023-04-16T00:16:39.609Z,101854.94
2023-04-16T00:19:06.981Z,101864.47
2023-04-16T00:21:34.200Z,101861.00
2023-04-16T00:24:00.920Z,101855.75
2023-04-16T00:26:27.550Z,101867.09
2023-04-16T00:28:54.204Z,101877.53
2023-04-16T00:31:29.208Z,101875.75
2023-04-16T00:33:56.173Z,101881.81
2023-04-16T00:36:27.260Z,101890.50
2023-04-16T00:38:54.759Z,101880.97
2023-04-16T00:41:23.164Z,101888.78
2023-04-16T00:43:50.152Z,101895.81
2023-04-16T00:46:17.192Z,101896.66
2023-04-16T00:48:44.388Z,101891.38
2023-04-16T00:51:11.645Z,101884.50
2023-04-16T00:53:38.353Z,101866.94
2023-04-16T00:56:07.217Z,101892.34
2023-04-16T00:58:35.162Z,101867.06
2023-04-16T01:01:02.111Z,101881.09
2023-04-16T01:03:39.752Z,101874.13
2023-04-16T01:06:07.852Z,101878.53
2023-04-16T01:08:34.492Z,101873.31
2023-04-16T01:11:01.455Z,101873.31
2023-04-16T01:13:28.109Z,101863.75
2023-04-16T01:15:55.223Z,101871.56
2023-04-16T01:18:23.126Z,101864.66
2023-04-16T01:20:50.498Z,101864.63
2023-04-16T01:23:18.715Z,101855.94
2023-04-16T01:25:48.551Z,101866.34
2023-04-16T01:28:15.929Z,101855.09
2023-04-16T01:30:42.570Z,101852.50
2023-04-16T01:33:11.535Z,101857.72
2023-04-16T01:35:38.776Z,101842.03
2023-04-16T01:38:06.403Z,101864.66
2023-04-16T01:40:33.317Z,101858.59
2023-04-16T01:42:59.944Z,101869.91
2023-04-16T01:45:26.772Z,101855.94
2023-04-16T01:47:53.519Z,101864.69
2023-04-16T01:50:21.582Z,101874.22
2023-04-16T01:52:48.247Z,101859.44
2023-04-16T01:55:14.998Z,101871.63
2023-04-16T01:57:41.747Z,101865.53
2023-04-16T02:00:12.174Z,101867.28
2023-04-16T02:02:42.095Z,101848.94
2023-04-16T02:05:08.955Z,101879.44
2023-04-16T02:07:35.818Z,101864.63
2023-04-16T02:10:02.615Z,101881.22
2023-04-16T02:12:30.386Z,101884.66
2023-04-16T02:14:57.051Z,101888.13
2023-04-16T02:17:23.732Z,101887.25
2023-04-16T02:19:50.437Z,101887.25
2023-04-16T02:22:17.390Z,101895.09
2023-04-16T02:24:44.048Z,101897.66
2023-04-16T02:27:10.702Z,101898.53
2023-04-16T02:29:37.402Z,101896.81
2023-04-16T02:32:10.720Z,101908.13
2023-04-16T02:34:39.953Z,101913.34
2023-04-16T02:37:06.563Z,101892.44
2023-04-16T02:39:33.315Z,101913.34
2023-04-16T02:42:01.558Z,101911.56
2023-04-16T02:44:28.309Z,101911.56
2023-04-16T02:46:54.959Z,101906.34
2023-04-16T02:49:21.593Z,101921.22
2023-04-16T02:51:48.182Z,101914.19
2023-04-16T02:54:14.961Z,101929.00
2023-04-16T02:56:41.632Z,101929.81
2023-04-16T02:59:08.632Z,101936.84
2023-04-16T03:01:35.472Z,101942.03
2023-04-16T03:04:02.249Z,101935.09
2023-04-16T03:06:31.531Z,101939.44
2023-04-16T03:08:58.345Z,101944.66
2023-04-16T03:11:25.035Z,101949.88
2023-04-16T03:13:51.788Z,101950.69
2023-04-16T03:16:18.516Z,101957.66
2023-04-16T03:18:45.444Z,101957.66
2023-04-16T03:21:13.758Z,101951.53
2023-04-16T03:23:40.472Z,101974.16
2023-04-16T03:26:07.153Z,101979.38
2023-04-16T03:28:33.780Z,101975.88
2023-04-16T03:31:00.795Z,101969.78
2023-04-16T03:33:27.634Z,101981.09
2023-04-16T03:35:58.177Z,101981.97
2023-04-16T03:38:26.725Z,101992.44
2023-04-16T03:40:53.507Z,101915.53
2023-04-16T03:43:20.131Z,101990.63
2023-04-16T03:45:47.528Z,101999.41
2023-04-16T03:48:14.294Z,101997.63
2023-04-16T03:50:41.358Z,101995.91
2023-04-16T03:53:08.006Z,101994.16
2023-04-16T03:55:35.438Z,101992.38
2023-04-16T03:58:03.566Z,102009.81
2023-04-16T04:00:30.823Z,102007.19
2023-04-16T04:02:57.899Z,102015.00
2023-04-16T04:05:24.807Z,102019.34
2023-04-16T04:07:51.556Z,102026.31
2023-04-16T04:10:18.280Z,102030.66
2023-04-16T04:12:44.970Z,102029.81
2023-04-16T04:15:11.955Z,102035.06
2023-04-16T04:17:38.934Z,102022.88
2023-04-16T04:20:06.477Z,102015.88
2023-04-16T04:22:33.270Z,102018.53
2023-04-16T04:24:59.945Z,102024.59
2023-04-16T04:27:27.363Z,102022.88
2023-04-16T04:29:54.082Z,102030.78
2023-04-16T04:32:20.820Z,102031.63
2023-04-16T04:34:47.415Z,102027.28
2023-04-16T04:37:14.088Z,102022.06
2023-04-16T04:39:40.719Z,102030.75
2023-04-16T04:42:07.405Z,102023.81
2023-04-16T04:44:34.077Z,102030.75
2023-04-16T04:47:01.358Z,102017.75
2023-04-16T04:49:28.158Z,102015.97
2023-04-16T04:51:54.864Z,102021.25
2023-04-16T04:54:21.490Z,102028.25
2023-04-16T04:56:48.169Z,102029.94
2023-04-16T04:59:15.144Z,102036.09
2023-04-16T05:01:41.859Z,102020.28
2023-04-16T05:04:08.733Z,102023.88
2023-04-16T05:06:35.681Z,102013.38
2023-04-16T05:09:02.323Z,102034.38
2023-04-16T05:11:29.985Z,102033.47
2023-04-16T05:13:57.058Z,102023.09
2023-04-16T05:16:23.935Z,102030.94
2023-04-16T05:18:50.664Z,102036.22
2023-04-16T05:21:17.386Z,102022.25
2023-04-16T05:23:44.039Z,102024.00
2023-04-16T05:26:10.898Z,101999.66
2023-04-16T05:28:37.494Z,102006.63
2023-04-16T05:31:04.277Z,102005.78
2023-04-16T05:33:31.008Z,102000.66
2023-04-16T05:35:57.713Z,102001.53
2023-04-16T05:38:24.451Z,101998.94
2023-04-16T05:40:51.283Z,101989.38
2023-04-16T05:43:18.401Z,101980.72
2023-04-16T05:45:45.105Z,101977.22
2023-04-16T05:48:12.492Z,101924.91
2023-04-16T05:50:39.303Z,101970.34
2023-04-16T05:53:08.116Z,101966.91
2023-04-16T05:55:36.899Z,101959.97
2023-04-16T05:58:06.371Z,101950.34
2023-04-16T06:00:33.409Z,101953.81
2023-04-16T06:03:00.278Z,101947.75
2023-04-16T06:05:27.246Z,101946.09
2023-04-16T06:07:53.935Z,101944.38
2023-04-16T06:10:21.068Z,101940.00
2023-04-16T06:12:47.786Z,101942.69
2023-04-16T06:15:14.615Z,101926.09
2023-04-16T06:17:42.574Z,101944.47
2023-04-16T06:20:09.892Z,101922.66
2023-04-16T06:22:36.633Z,101920.13
2023-04-16T06:25:03.326Z,101913.19
2023-04-16T06:27:31.392Z,101901.06
2023-04-16T06:29:58.535Z,101901.97
2023-04-16T06:32:25.812Z,101899.38
2023-04-16T06:34:52.516Z,101858.41
2023-04-16T06:37:19.168Z,101861.09
2023-04-16T06:39:45.860Z,101845.44
2023-04-16T06:42:12.537Z,101838.50
2023-04-16T06:44:39.227Z,101842.88
2023-04-16T06:47:06.029Z,101840.28
2023-04-16T06:49:32.829Z,101822.97
2023-04-16T06:51:59.536Z,101822.94
2023-04-16T06:54:26.236Z,101824.69
2023-04-16T06:56:53.150Z,101807.31
2023-04-16T06:59:19.816Z,101785.56
2023-04-16T07:01:46.480Z,101784.75
2023-04-16T07:04:13.187Z,101785.66
2023-04-16T07:06:39.853Z,101777.78
2023-04-16T07:09:06.475Z,101780.44
2023-04-16T07:11:35.999Z,101723.00
2023-04-16T07:14:02.700Z,101737.84
2023-04-16T07:16:29.525Z,101746.53
2023-04-16T07:18:56.443Z,101733.53
2023-04-16T07:21:23.069Z,101726.56
2023-04-16T07:23:49.719Z,101719.63
2023-04-16T07:26:16.342Z,101692.69
2023-04-16T07:28:43.093Z,101686.63
2023-04-16T07:31:09.821Z,101677.06
2023-04-16T07:33:36.499Z,101671.84
2023-04-16T07:36:03.144Z,101666.63
2023-04-16T07:38:32.783Z,101644.03
2023-04-16T07:40:59.435Z,101637.09
2023-04-16T07:43:26.070Z,101626.66
2023-04-16T07:45:52.725Z,101624.06
2023-04-16T07:48:19.427Z,101617.09
2023-04-16T07:50:46.208Z,101591.00
2023-04-16T07:53:13.184Z,101594.53
2023-04-16T07:55:39.804Z,101592.75
2023-04-16T07:58:07.940Z,101584.09
2023-04-16T08:00:34.574Z,101584.06
2023-04-16T08:03:01.405Z,101573.63
2023-04-16T08:05:28.345Z,101571.03
2023-04-16T08:07:55.101Z,101558.00
2023-04-16T08:10:21.949Z,101556.28
2023-04-16T08:12:48.624Z,101545.84
2023-04-16T08:15:15.830Z,101548.47
2023-04-16T08:17:43.030Z,101539.75
2023-04-16T08:20:12.189Z,101540.59
2023-04-16T08:22:41.185Z,101549.28
2023-04-16T08:25:08.592Z,101534.53
2023-04-16T08:27:35.490Z,101520.63
2023-04-16T08:30:05.532Z,101522.34
2023-04-16T08:32:32.263Z,101491.06
2023-04-16T08:34:59.211Z,101501.50
2023-04-16T08:37:26.301Z,101504.09
2023-04-16T08:39:53.249Z,101492.81
2023-04-16T08:42:41.028Z,101494.56
2023-04-16T08:45:09.679Z,101487.59
2023-04-16T08:47:39.756Z,101499.75
2023-04-16T08:50:07.042Z,101500.63
2023-04-16T08:52:38.181Z,101497.13
2023-04-16T08:55:10.107Z,101498.00
2023-04-16T08:57:45.637Z,101483.22
2023-04-16T09:00:12.678Z,101469.34
2023-04-16T09:02:39.666Z,101470.22
2023-04-16T09:05:07.960Z,101464.13
2023-04-16T09:07:35.503Z,101457.19
2023-04-16T09:10:02.321Z,101452.84
2023-04-16T09:12:30.733Z,101451.09
2023-04-16T09:14:59.853Z,101419.84
2023-04-16T09:17:27.293Z,101440.69
2023-04-16T09:19:54.986Z,101429.41
2023-04-16T09:22:21.713Z,101447.56
2023-04-16T09:24:48.482Z,101445.84
2023-04-16T09:27:15.101Z,101437.16
2023-04-16T09:29:42.180Z,101441.50
2023-04-16T09:32:11.109Z,101435.44
2023-04-16T09:34:59.732Z,101434.53
2023-04-16T09:37:30.508Z,101425.00
2023-04-16T09:39:58.077Z,101425.00
2023-04-16T09:42:27.490Z,101395.41
2023-04-16T09:44:55.000Z,101407.53
2023-04-16T09:47:23.458Z,101402.28
2023-04-16T09:49:50.510Z,101418.78
2023-04-16T09:52:22.940Z,101405.78
2023-04-16T09:54:54.023Z,101398.84
2023-04-16T09:57:22.418Z,101403.16
2023-04-16T09:59:53.085Z,101382.34
2023-04-16T10:02:20.680Z,101387.53
2023-04-16T10:04:51.936Z,101387.56
2023-04-16T10:07:19.377Z,101369.28
2023-04-16T10:09:48.672Z,101392.72
2023-04-16T10:12:16.092Z,101377.94
2023-04-16T10:14:43.067Z,101377.06
2023-04-16T10:17:10.189Z,101379.50
2023-04-16T10:19:37.302Z,101376.88
2023-04-16T10:22:04.443Z,101401.97
2023-04-16T10:24:32.560Z,101368.28
2023-04-16T10:27:00.273Z,101365.50
2023-04-16T10:29:28.408Z,101340.41
2023-04-16T10:31:56.897Z,101342.97
2023-04-16T10:34:24.886Z,101333.38
2023-04-16T10:36:53.108Z,101330.81
2023-04-16T10:39:23.582Z,101304.88
2023-04-16T10:41:51.537Z,101292.78
2023-04-16T10:44:19.769Z,101291.88
2023-04-16T10:46:50.856Z,101301.44
2023-04-16T10:49:19.267Z,101310.09
2023-04-16T10:51:57.153Z,101313.59
2023-04-16T10:54:26.113Z,101310.97
2023-04-16T10:56:53.734Z,101306.66
2023-04-16T10:59:22.306Z,101313.56
2023-04-16T11:01:51.809Z,101308.34
2023-04-16T11:04:21.643Z,101312.72
2023-04-16T11:07:04.914Z,101320.50
2023-04-16T11:09:50.661Z,101317.88
2023-04-16T11:12:18.970Z,101315.31
2023-04-16T11:14:48.981Z,101302.41
2023-04-16T11:17:16.312Z,101312.78
2023-04-16T11:19:43.790Z,101292.88
2023-04-16T11:22:13.504Z,101313.69
2023-04-16T11:24:41.070Z,101313.69
2023-04-16T11:27:08.553Z,101323.19
2023-04-16T11:29:35.497Z,101325.78
2023-04-16T11:32:02.266Z,101330.16
2023-04-16T11:34:29.460Z,101328.38
2023-04-16T11:36:56.431Z,101327.56
2023-04-16T11:39:23.603Z,101326.63
2023-04-16T11:41:52.441Z,101329.22
2023-04-16T11:44:24.355Z,101327.47
2023-04-16T11:46:52.462Z,101310.13
2023-04-16T11:49:31.207Z,101312.75
2023-04-16T11:51:58.672Z,101310.13
2023-04-16T11:54:25.779Z,101323.09
2023-04-16T11:56:53.403Z,101316.94
2023-04-16T11:59:23.211Z,101311.81
2023-04-16T12:01:56.276Z,101310.06
2023-04-16T12:04:27.563Z,101299.69
2023-04-16T12:07:12.018Z,101297.97
2023-04-16T12:09:41.147Z,101300.59
2023-04-16T12:12:31.176Z,101286.69
2023-04-16T12:15:00.335Z,101293.63
2023-04-16T12:17:27.045Z,101287.56
2023-04-16T12:20:07.009Z,101297.06
2023-04-16T12:22:37.422Z,101297.91
2023-04-16T12:25:06.231Z,101292.69
2023-04-16T12:27:50.085Z,101293.56
2023-04-16T12:30:21.097Z,101285.78
2023-04-16T12:32:49.113Z,101284.06
2023-04-16T12:35:30.608Z,101285.78
2023-04-16T12:37:57.575Z,101282.28
2023-04-16T12:40:24.399Z,101277.03
2023-04-16T12:42:51.390Z,101277.84
2023-04-16T12:45:18.036Z,101271.75
2023-04-16T12:47:44.877Z,101260.53
2023-04-16T12:50:11.685Z,101253.63
2023-04-16T12:52:38.374Z,101242.34
2023-04-16T12:55:05.318Z,101250.97
2023-04-16T12:57:32.069Z,101240.50
2023-04-16T12:59:59.084Z,101244.81
2023-04-16T13:02:26.208Z,101240.34
2023-04-16T13:04:54.222Z,101226.44
2023-04-16T13:07:21.431Z,101210.84
2023-04-16T13:09:48.977Z,101206.56
2023-04-16T13:12:15.782Z,101193.56
2023-04-16T13:14:51.751Z,101181.41
2023-04-16T13:17:18.449Z,101181.41
2023-04-16T13:19:45.977Z,101183.88
2023-04-16T13:22:12.704Z,101182.16
2023-04-16T13:24:39.449Z,101161.34
2023-04-16T13:27:08.457Z,101162.16
2023-04-16T13:29:36.788Z,101171.59
2023-04-16T13:32:03.963Z,101149.94
2023-04-16T13:34:31.032Z,101145.50
2023-04-16T13:36:57.671Z,101148.09
2023-04-16T13:39:24.283Z,101137.63
2023-04-16T13:41:51.552Z,101126.38
2023-04-16T13:44:18.329Z,101120.28
2023-04-16T13:46:47.830Z,101115.94
2023-04-16T13:49:15.104Z,101112.44
2023-04-16T13:51:44.978Z,101102.81
2023-04-16T13:54:11.688Z,101102.81
2023-04-16T13:56:38.311Z,101072.53
2023-04-16T13:59:05.015Z,101086.34
2023-04-16T14:01:31.658Z,101091.50
2023-04-16T14:03:59.594Z,101084.47
2023-04-16T14:06:27.174Z,101083.53
2023-04-16T14:08:54.257Z,101072.28
2023-04-16T14:11:21.213Z,101045.47
2023-04-16T14:13:47.953Z,101070.50
2023-04-16T14:16:14.670Z,101059.28
2023-04-16T14:18:42.507Z,101051.56
2023-04-16T14:21:09.576Z,101047.34
2023-04-16T14:23:36.303Z,101055.03
2023-04-16T14:26:03.675Z,101048.19
2023-04-16T14:28:30.576Z,101059.41
2023-04-16T14:30:57.249Z,101054.19
2023-04-16T14:33:24.005Z,101042.97
2023-04-16T14:35:51.473Z,101038.72
2023-04-16T14:38:18.152Z,101042.19
2023-04-16T14:40:44.854Z,101049.94
2023-04-16T14:43:11.523Z,101032.69
2023-04-16T14:45:38.510Z,101051.72
2023-04-16T14:48:06.373Z,101055.13
2023-04-16T14:50:37.994Z,101051.72
2023-04-16T14:53:05.742Z,101056.91
2023-04-16T14:56:05.562Z,101063.81
2023-04-16T14:58:23.974Z,101037.88
2023-04-16T15:00:51.494Z,101053.34
2023-04-16T15:03:21.341Z,101042.09
2023-04-16T15:06:24.223Z,101050.75
2023-04-16T15:08:59.457Z,101049.06
2023-04-16T15:11:26.704Z,101045.56
2023-04-16T15:13:53.914Z,101028.28
2023-04-16T15:16:20.802Z,101009.31
2023-04-16T15:18:47.952Z,101031.75
2023-04-16T15:21:14.867Z,101035.19
2023-04-16T15:23:41.784Z,101032.66
2023-04-16T15:26:08.469Z,101030.94
2023-04-16T15:28:35.174Z,101033.53
2023-04-16T15:31:01.895Z,101035.34
2023-04-16T15:33:28.609Z,101031.91
2023-04-16T15:35:55.213Z,101038.81
2023-04-16T15:38:21.831Z,101044.03
2023-04-16T15:40:48.593Z,101044.94
2023-04-16T15:43:16.057Z,101056.28
2023-04-16T15:45:42.614Z,101046.72
2023-04-16T15:48:09.339Z,101058.88
2023-04-16T15:50:36.248Z,101055.44
2023-04-16T15:53:03.489Z,101055.44
2023-04-16T15:55:30.177Z,101069.34
2023-04-16T15:57:57.014Z,101071.06
2023-04-16T16:00:24.086Z,101059.81
2023-04-16T16:02:50.912Z,101071.06
2023-04-16T16:05:17.750Z,101071.06
2023-04-16T16:07:44.995Z,101077.13
2023-04-16T16:10:13.352Z,101077.16
2023-04-16T16:12:41.285Z,101064.13
2023-04-16T16:15:08.422Z,101077.06
2023-04-16T16:17:35.193Z,101068.44
2023-04-16T16:20:02.222Z,101067.56
2023-04-16T16:22:29.964Z,101066.69
2023-04-16T16:24:57.790Z,101057.13
2023-04-16T16:27:24.623Z,101065.78
2023-04-16T16:29:51.306Z,101051.06
2023-04-16T16:32:18.048Z,101054.53
2023-04-16T16:34:44.728Z,101047.59
2023-04-16T16:37:11.336Z,101045.00
2023-04-16T16:39:38.897Z,101051.09
2023-04-16T16:42:06.054Z,101037.28
2023-04-16T16:44:33.096Z,101037.28
2023-04-16T16:46:59.927Z,101047.72
2023-04-16T16:49:27.344Z,101053.75
2023-04-16T16:51:53.931Z,100985.56
2023-04-16T16:54:20.954Z,101052.97
2023-04-16T16:56:47.667Z,101062.47
2023-04-16T16:59:14.449Z,101058.16
2023-04-16T17:01:41.271Z,101065.09
2023-04-16T17:04:08.178Z,101070.31
2023-04-16T17:06:35.026Z,101065.13
2023-04-16T17:09:02.268Z,101079.81
2023-04-16T17:11:29.448Z,101082.41
2023-04-16T17:13:56.113Z,101088.53
2023-04-16T17:16:23.988Z,101094.66
2023-04-16T17:18:50.963Z,101090.31
2023-04-16T17:21:17.737Z,101098.09
2023-04-16T17:23:44.434Z,101105.91
2023-04-16T17:26:11.338Z,101108.56
2023-04-16T17:28:38.089Z,101112.91
2023-04-16T17:31:07.210Z,101104.28
2023-04-16T17:33:36.841Z,101118.13
2023-04-16T17:36:03.753Z,101114.69
2023-04-16T17:38:30.552Z,101112.13
2023-04-16T17:40:57.822Z,101119.00
2023-04-16T17:43:24.551Z,101133.78
2023-04-16T17:45:51.252Z,101132.91
2023-04-16T17:48:18.315Z,101134.59
2023-04-16T17:50:44.981Z,101130.31
2023-04-16T17:53:11.698Z,101132.00
2023-04-16T17:55:38.362Z,101141.56
2023-04-16T17:58:05.060Z,101136.38
2023-04-16T18:00:31.695Z,101145.06
2023-04-16T18:02:59.779Z,101127.75
2023-04-16T18:05:26.740Z,101146.78
2023-04-16T18:07:53.738Z,101140.72
2023-04-16T18:10:20.537Z,101146.78
2023-04-16T18:12:47.263Z,101145.00
2023-04-16T18:15:13.928Z,101148.47
2023-04-16T18:17:40.702Z,101158.88
2023-04-16T18:20:09.287Z,101139.78
2023-04-16T18:22:35.960Z,101127.69
2023-04-16T18:25:02.615Z,101136.31
2023-04-16T18:27:29.967Z,101145.00
2023-04-16T18:29:57.085Z,101139.75
2023-04-16T18:32:24.241Z,101142.38
2023-04-16T18:34:55.528Z,101138.94
2023-04-16T18:37:22.391Z,101067.06
2023-04-16T18:39:49.121Z,101110.28
2023-04-16T18:42:15.787Z,101125.84
2023-04-16T18:44:42.443Z,101122.34
2023-04-16T18:47:09.068Z,101122.34
2023-04-16T18:49:35.762Z,101110.22
2023-04-16T18:52:02.439Z,101115.44
2023-04-16T18:54:29.166Z,101119.78
2023-04-16T18:56:57.313Z,101124.19
2023-04-16T18:59:24.896Z,101121.56
2023-04-16T19:01:51.740Z,101123.31
2023-04-16T19:04:18.535Z,101121.63
2023-04-16T19:06:45.775Z,101113.81
2023-04-16T19:09:12.923Z,101133.75
2023-04-16T19:11:40.478Z,101092.31
2023-04-16T19:14:08.364Z,101124.22
2023-04-16T19:16:35.506Z,101114.75
2023-04-16T19:19:02.251Z,101136.38
2023-04-16T19:21:28.863Z,101138.13
2023-04-16T19:23:56.010Z,101134.66
2023-04-16T19:26:22.716Z,101125.13
2023-04-16T19:28:49.313Z,101121.63
2023-04-16T19:31:16.526Z,101138.09
2023-04-16T19:33:43.341Z,101125.94
2023-04-16T19:36:10.157Z,101129.41
2023-04-16T19:38:36.823Z,101139.81
2023-04-16T19:41:03.486Z,101138.94
2023-04-16T19:43:31.131Z,101137.22
2023-04-16T19:46:01.216Z,101102.56
2023-04-16T19:48:27.973Z,101126.78
2023-04-16T19:50:54.856Z,101123.38
2023-04-16T19:53:21.899Z,101062.72
2023-04-16T19:55:48.727Z,101096.41
2023-04-16T19:58:15.464Z,101096.44
2023-04-16T20:00:45.204Z,101106.81
2023-04-16T20:03:11.937Z,101084.28
2023-04-16T20:05:38.648Z,101106.75
2023-04-16T20:08:07.813Z,101094.69
2023-04-16T20:10:34.580Z,101085.13
2023-04-16T20:13:01.725Z,101086.03
2023-04-16T20:15:28.395Z,101062.59
2023-04-16T20:17:56.302Z,101094.63
2023-04-16T20:20:23.807Z,101086.84
2023-04-16T20:22:50.944Z,101099.84
2023-04-16T20:25:19.360Z,101104.22
2023-04-16T20:27:46.346Z,101103.31
2023-04-16T20:30:13.771Z,101098.13
2023-04-16T20:32:40.717Z,101101.66
2023-04-16T20:35:10.806Z,101105.94
2023-04-16T20:37:42.398Z,101103.34
2023-04-16T20:40:09.743Z,101098.13
2023-04-16T20:42:36.503Z,101089.47
2023-04-16T20:45:03.272Z,101083.41
2023-04-16T20:47:29.932Z,101095.53
2023-04-16T20:49:56.555Z,101089.44
2023-04-16T20:52:23.202Z,101068.72
2023-04-16T20:54:52.165Z,101084.19
2023-04-16T20:57:18.998Z,101085.06
2023-04-16T20:59:46.328Z,101076.41
2023-04-16T21:02:13.260Z,101056.44
2023-04-16T21:04:40.285Z,101068.56
2023-04-16T21:07:07.374Z,101043.50
2023-04-16T21:09:34.049Z,101056.50
2023-04-16T21:12:01.604Z,101060.72
2023-04-16T21:14:28.240Z,101052.94
2023-04-16T21:16:55.036Z,101052.03
2023-04-16T21:19:22.654Z,101048.56
2023-04-16T21:21:49.467Z,101048.56
2023-04-16T21:24:16.840Z,101046.84
2023-04-16T21:26:43.455Z,101019.16
2023-04-16T21:29:10.282Z,101020.03
2023-04-16T21:31:37.190Z,101044.22
2023-04-16T21:34:04.052Z,101045.13
2023-04-16T21:36:32.117Z,101039.13
2023-04-16T21:38:58.942Z,101034.75
2023-04-16T21:41:25.814Z,101037.34
2023-04-16T21:43:52.478Z,101029.59
2023-04-16T21:46:19.302Z,101038.19
2023-04-16T21:48:46.339Z,101039.94
2023-04-16T21:51:14.152Z,101042.50
2023-04-16T21:53:40.934Z,101032.09
2023-04-16T21:56:08.322Z,101034.72
2023-04-16T21:58:35.076Z,101024.28
2023-04-16T22:01:01.868Z,101031.22
2023-04-16T22:03:31.132Z,101031.22
2023-04-16T22:06:01.667Z,101030.25
2023-04-16T22:08:29.276Z,101019.91
2023-04-16T22:11:01.592Z,101013.84
2023-04-16T22:13:32.759Z,101018.19
2023-04-16T22:16:02.514Z,101016.41
2023-04-16T22:18:33.191Z,101009.50
2023-04-16T22:21:00.486Z,101016.34
2023-04-16T22:23:27.225Z,100983.53
2023-04-16T22:25:55.456Z,100983.56
2023-04-16T22:28:22.385Z,100969.69
2023-04-16T22:30:49.800Z,100981.75
2023-04-16T22:33:16.559Z,100958.41
2023-04-16T22:35:43.330Z,100983.50
2023-04-16T22:38:10.479Z,100983.53
2023-04-16T22:40:37.328Z,100985.25
2023-04-16T22:43:04.205Z,100988.72
2023-04-16T22:45:31.016Z,100987.78
2023-04-16T22:47:57.848Z,100967.91
2023-04-16T22:50:24.563Z,100983.53
2023-04-16T22:52:51.235Z,100978.22
2023-04-16T22:55:18.215Z,100970.56
2023-04-16T22:57:44.914Z,100972.19
2023-04-16T23:00:16.337Z,100977.47
2023-04-16T23:02:46.088Z,100940.31
2023-04-16T23:05:12.915Z,100940.28
2023-04-16T23:07:39.683Z,100970.59
2023-04-16T23:10:08.524Z,100961.94
2023-04-16T23:12:37.677Z,100961.94
2023-04-16T23:15:06.914Z,100987.00
2023-04-16T23:17:35.337Z,100984.34
2023-04-16T23:20:02.418Z,100969.63
2023-04-16T23:22:29.459Z,100981.81
2023-04-16T23:24:56.157Z,100915.19
2023-04-16T23:27:23.016Z,100961.00
2023-04-16T23:29:49.963Z,100973.97
2023-04-16T23:32:17.014Z,100954.91
2023-04-16T23:34:47.080Z,100958.41
2023-04-16T23:37:13.860Z,100970.47
2023-04-16T23:39:41.170Z,100970.47
2023-04-16T23:42:07.807Z,100966.13
2023-04-16T23:44:34.521Z,100947.97
2023-04-16T23:47:01.266Z,100960.97
2023-04-16T23:49:28.151Z,100973.97
2023-04-16T23:51:54.824Z,100947.97
2023-04-16T23:54:21.535Z,100967.91
2023-04-16T23:56:48.343Z,100965.31
2023-04-16T23:59:15.134Z,100964.44
